Time;durP1;ratioP1;P1;durP2;ratioP2;P2;SDS_P1;SDS_P2;PMS_P1;PMS_P2;Temp;Humidity;BMP_temperature;BMP_pressure;BME280_temperature;BME280_humidity;BME280_pressure;Samples;Min_cycle;Max_cycle;Signal;HPM_P1;HPM_P2
2022/04/17 00:00:55;;;;;;;4.78;4.13;;;6.90;87.50;;;;;;5076697;28;20052;-76
2022/04/17 00:03:21;;;;;;;7.03;4.10;;;6.90;88.00;;;;;;5077066;28;20499;-76
2022/04/17 00:05:49;;;;;;;5.82;4.07;;;6.90;87.90;;;;;;5059848;28;20054;-76
2022/04/17 00:08:15;;;;;;;5.68;3.90;;;6.90;88.10;;;;;;5060164;28;20040;-77
2022/04/17 00:10:40;;;;;;;5.45;4.05;;;6.80;87.90;;;;;;5076470;28;20070;-77
2022/04/17 00:13:06;;;;;;;4.93;4.43;;;6.80;87.10;;;;;;5077195;28;20044;-76
2022/04/17 00:15:32;;;;;;;6.53;4.50;;;6.80;87.30;;;;;;5076787;28;20146;-76
2022/04/17 00:17:57;;;;;;;4.72;4.00;;;6.90;87.10;;;;;;5056000;28;20056;-76
2022/04/17 00:20:23;;;;;;;5.63;4.30;;;6.80;87.40;;;;;;5056835;28;20036;-76
2022/04/17 00:22:49;;;;;;;5.50;4.43;;;6.80;88.00;;;;;;5039699;28;20048;-76
2022/04/17 00:25:16;;;;;;;4.65;4.18;;;6.80;87.90;;;;;;5073488;28;20044;-76
2022/04/17 00:27:42;;;;;;;5.72;4.30;;;6.70;88.50;;;;;;5055814;28;20044;-77
2022/04/17 00:30:08;;;;;;;5.78;4.50;;;6.80;88.10;;;;;;5056503;28;20056;-77
2022/04/17 00:32:35;;;;;;;6.10;4.57;;;6.80;87.80;;;;;;5056543;28;20090;-76
2022/04/17 00:35:00;;;;;;;5.53;4.80;;;6.80;88.00;;;;;;5056204;28;20074;-76
2022/04/17 00:37:26;;;;;;;5.68;4.60;;;6.70;88.40;;;;;;5072903;28;20044;-77
2022/04/17 00:39:52;;;;;;;5.00;4.40;;;6.70;88.80;;;;;;5039322;28;20048;-76
2022/04/17 00:42:18;;;;;;;5.53;4.95;;;6.70;89.00;;;;;;5056363;28;20036;-76
2022/04/17 00:44:43;;;;;;;5.97;5.15;;;6.70;89.10;;;;;;5056120;28;20037;-77
2022/04/17 00:47:12;;;;;;;6.75;4.57;;;6.60;89.40;;;;;;5039758;28;20056;-76
2022/04/17 00:49:37;;;;;;;6.65;5.05;;;6.60;89.30;;;;;;5040461;28;20119;-76
2022/04/17 00:52:04;;;;;;;6.53;4.63;;;6.70;89.50;;;;;;5071963;28;20356;-76
2022/04/17 00:54:30;;;;;;;6.78;4.78;;;6.50;89.60;;;;;;5023341;28;20073;-76
2022/04/17 00:56:55;;;;;;;6.18;4.85;;;6.50;89.80;;;;;;5038810;28;20523;-76
2022/04/17 00:59:22;;;;;;;8.27;5.15;;;6.50;90.00;;;;;;5039648;28;20435;-76
2022/04/17 01:01:47;;;;;;;5.95;4.70;;;6.50;90.20;;;;;;5054796;28;20408;-76
2022/04/17 01:04:14;;;;;;;6.22;4.80;;;6.50;90.30;;;;;;5039430;28;20049;-77
2022/04/17 01:06:40;;;;;;;6.25;5.13;;;6.40;90.20;;;;;;5055918;28;20048;-76
2022/04/17 01:09:06;;;;;;;6.50;4.95;;;6.40;90.20;;;;;;5055726;28;20052;-76
2022/04/17 01:11:32;;;;;;;5.95;5.00;;;6.30;90.10;;;;;;5072284;28;20172;-77
2022/04/17 01:13:58;;;;;;;7.65;5.50;;;6.30;90.40;;;;;;5038634;28;20053;-76
2022/04/17 01:16:23;;;;;;;7.90;5.72;;;6.30;90.60;;;;;;5038936;28;20044;-76
2022/04/17 01:19:11;;;;;;;7.82;5.13;;;6.30;90.80;;;;;;5038358;28;20503;-77
2022/04/17 01:21:40;;;;;;;7.50;5.53;;;6.20;91.00;;;;;;5056445;28;20053;-76
2022/04/17 01:26:58;;;;;;;10.35;5.55;;;6.20;91.10;;;;;;5057714;28;20092;-76
2022/04/17 01:29:27;;;;;;;5.80;4.78;;;6.20;91.30;;;;;;5056425;28;20049;-76
2022/04/17 01:31:53;;;;;;;6.30;5.22;;;6.20;91.30;;;;;;5055469;28;20051;-76
2022/04/17 01:34:20;;;;;;;6.90;5.82;;;6.20;91.80;;;;;;5038947;28;20409;-76
2022/04/17 01:36:46;;;;;;;7.95;5.88;;;6.10;91.50;;;;;;5071708;28;20055;-76
2022/04/17 01:39:12;;;;;;;7.30;5.18;;;6.10;91.80;;;;;;5054817;28;20127;-76
2022/04/17 01:41:38;;;;;;;6.90;5.88;;;6.10;92.20;;;;;;5038915;28;20489;-76
2022/04/17 01:44:04;;;;;;;8.75;5.55;;;6.00;92.30;;;;;;5073465;28;20044;-76
2022/04/17 01:46:30;;;;;;;6.63;5.63;;;6.00;92.50;;;;;;5082221;28;20047;-76
2022/04/17 01:48:56;;;;;;;7.95;5.75;;;6.00;92.40;;;;;;5091510;28;20135;-76
2022/04/17 01:51:21;;;;;;;7.97;6.10;;;6.00;92.70;;;;;;5075629;28;20044;-76
2022/04/17 01:53:47;;;;;;;7.65;5.72;;;5.90;92.90;;;;;;5055175;28;20040;-76
2022/04/17 01:56:13;;;;;;;7.07;5.53;;;5.90;93.10;;;;;;5054663;28;20178;-76
2022/04/17 01:58:39;;;;;;;8.10;5.70;;;5.80;93.10;;;;;;5038232;28;20080;-76
2022/04/17 02:01:05;;;;;;;7.07;5.63;;;5.80;93.20;;;;;;5071235;28;20041;-76
2022/04/17 02:03:30;;;;;;;6.35;5.75;;;5.80;93.20;;;;;;5071821;28;20105;-76
2022/04/17 02:05:56;;;;;;;6.80;5.78;;;5.70;93.40;;;;;;5074669;28;20099;-76
2022/04/17 02:08:22;;;;;;;6.57;5.80;;;5.80;93.50;;;;;;5074907;28;20126;-76
2022/04/17 02:10:47;;;;;;;7.82;6.00;;;5.70;93.50;;;;;;5091796;28;20048;-76
2022/04/17 02:13:13;;;;;;;8.02;5.95;;;5.70;93.50;;;;;;5088409;28;20283;-76
2022/04/17 02:15:38;;;;;;;7.25;5.60;;;5.70;93.60;;;;;;5054697;28;20048;-76
2022/04/17 02:18:05;;;;;;;7.70;6.35;;;5.70;93.80;;;;;;5069947;28;20382;-77
2022/04/17 02:20:31;;;;;;;8.35;6.13;;;5.60;93.90;;;;;;5072609;28;20121;-77
2022/04/17 02:22:56;;;;;;;7.40;6.18;;;5.60;94.00;;;;;;5054166;28;20481;-76
2022/04/17 02:25:22;;;;;;;7.63;6.00;;;5.60;94.10;;;;;;5071402;28;20040;-77
2022/04/17 02:27:48;;;;;;;7.32;6.30;;;5.60;94.20;;;;;;5072560;28;20049;-77
2022/04/17 02:30:13;;;;;;;10.35;6.28;;;5.60;94.30;;;;;;5071879;28;20040;-77
2022/04/17 02:32:39;;;;;;;7.97;5.93;;;5.60;94.40;;;;;;5072289;28;20052;-77
2022/04/17 02:35:05;;;;;;;6.68;5.93;;;5.50;94.50;;;;;;5070580;28;20055;-77
2022/04/17 02:37:32;;;;;;;7.28;5.80;;;5.50;94.60;;;;;;5038036;28;20045;-78
2022/04/17 02:39:57;;;;;;;9.65;5.63;;;5.50;94.70;;;;;;5071139;28;20122;-85
2022/04/17 02:42:23;;;;;;;7.50;6.53;;;5.40;94.80;;;;;;5071277;28;20512;-76
2022/04/17 02:44:48;;;;;;;6.78;6.07;;;5.40;94.90;;;;;;5054777;28;20116;-77
2022/04/17 02:49:58;;;;;;;9.52;6.22;;;5.40;95.10;;;;;;5056882;28;20568;-83
2022/04/17 02:52:24;;;;;;;8.90;5.88;;;5.40;95.30;;;;;;5070709;28;20049;-76
2022/04/17 02:54:50;;;;;;;9.88;6.25;;;5.30;95.40;;;;;;5054416;28;20044;-77
2022/04/17 02:57:15;;;;;;;7.50;6.25;;;5.40;95.40;;;;;;5070660;28;20079;-77
2022/04/17 02:59:41;;;;;;;7.53;6.60;;;5.20;95.50;;;;;;5071300;28;20164;-77
2022/04/17 03:07:35;;;;;;;8.05;6.15;;;5.20;95.70;;;;;;5071110;28;20498;-77
2022/04/17 03:10:02;;;;;;;8.98;6.32;;;5.20;95.60;;;;;;5071007;28;20134;-76
2022/04/17 03:12:27;;;;;;;8.68;5.85;;;5.20;95.80;;;;;;5037929;28;20051;-77
2022/04/17 03:14:53;;;;;;;7.97;6.63;;;5.10;95.90;;;;;;5070974;28;20041;-76
2022/04/17 03:17:19;;;;;;;8.80;6.47;;;5.10;96.10;;;;;;5055386;28;20146;-77
2022/04/17 03:19:46;;;;;;;6.97;6.28;;;5.10;96.30;;;;;;5040831;28;20087;-77
2022/04/17 03:22:11;;;;;;;7.55;6.25;;;5.10;96.50;;;;;;5040692;28;20048;-77
2022/04/17 03:24:37;;;;;;;8.27;6.25;;;5.00;96.40;;;;;;5075183;28;20050;-76
2022/04/17 03:27:03;;;;;;;8.77;5.85;;;4.90;96.40;;;;;;5044610;28;20094;-77
2022/04/17 03:29:29;;;;;;;8.77;6.28;;;5.00;96.60;;;;;;5077878;28;20052;-77
2022/04/17 03:31:54;;;;;;;7.32;5.85;;;5.00;96.80;;;;;;5077734;28;20047;-77
2022/04/17 03:34:20;;;;;;;6.53;5.70;;;4.90;96.90;;;;;;5044215;28;20043;-76
2022/04/17 03:36:46;;;;;;;8.05;6.18;;;4.90;97.10;;;;;;5044429;28;20052;-77
2022/04/17 03:39:12;;;;;;;6.93;6.03;;;4.90;97.30;;;;;;5077364;28;20447;-77
2022/04/17 03:41:37;;;;;;;8.38;6.28;;;4.80;97.40;;;;;;5077544;28;20048;-79
2022/04/17 03:44:04;;;;;;;8.18;5.90;;;4.80;97.50;;;;;;5060887;28;20051;-77
2022/04/17 03:46:30;;;;;;;8.10;6.20;;;4.70;97.60;;;;;;5060488;28;20040;-77
2022/04/17 03:48:55;;;;;;;8.90;6.57;;;4.70;97.80;;;;;;5044449;28;20116;-76
2022/04/17 03:51:21;;;;;;;8.48;6.35;;;4.70;97.90;;;;;;5076789;28;20532;-77
2022/04/17 03:53:47;;;;;;;10.55;7.05;;;4.80;98.10;;;;;;5077271;28;20137;-76
2022/04/17 03:56:12;;;;;;;8.43;6.72;;;4.70;98.10;;;;;;5060276;28;20148;-77
2022/04/17 03:58:38;;;;;;;7.18;6.30;;;4.60;98.20;;;;;;5060527;28;20044;-77
2022/04/17 04:01:03;;;;;;;8.05;6.82;;;4.60;98.20;;;;;;5043770;28;20044;-76
2022/04/17 04:03:29;;;;;;;9.32;7.28;;;4.50;98.10;;;;;;5043422;28;20044;-76
2022/04/17 04:05:55;;;;;;;9.07;6.97;;;4.50;98.20;;;;;;5076929;28;20054;-77
2022/04/17 04:08:21;;;;;;;9.95;7.18;;;4.40;98.20;;;;;;5043258;28;20421;-77
2022/04/17 04:10:47;;;;;;;8.50;7.43;;;4.50;98.30;;;;;;5043399;28;20476;-77
2022/04/17 04:13:13;;;;;;;9.98;7.43;;;4.40;98.30;;;;;;5059233;28;20059;-82
2022/04/17 04:15:38;;;;;;;9.13;6.90;;;4.40;98.30;;;;;;5037632;28;20036;-77
2022/04/17 04:18:04;;;;;;;8.50;7.40;;;4.50;98.30;;;;;;5094464;28;20500;-78
2022/04/17 04:20:30;;;;;;;10.25;7.13;;;4.40;98.30;;;;;;5086480;28;20085;-78
2022/04/17 04:22:56;;;;;;;8.70;7.10;;;4.40;98.40;;;;;;5097134;28;20104;-78
2022/04/17 04:25:21;;;;;;;7.82;6.57;;;4.40;98.30;;;;;;5096646;28;20047;-78
2022/04/17 04:30:31;;;;;;;11.93;7.30;;;4.40;98.40;;;;;;5096434;28;20499;-79
2022/04/17 04:32:57;;;;;;;10.30;7.63;;;4.30;98.30;;;;;;5067940;28;20040;-78
2022/04/17 04:35:23;;;;;;;9.63;6.95;;;4.40;98.40;;;;;;5059777;28;20162;-78
2022/04/17 04:37:49;;;;;;;9.60;7.50;;;4.40;98.50;;;;;;5094442;28;20127;-78
2022/04/17 04:40:15;;;;;;;7.82;6.93;;;4.40;98.40;;;;;;5059657;28;20127;-79
2022/04/17 04:42:41;;;;;;;9.07;6.90;;;4.40;98.50;;;;;;5059900;28;20048;-78
2022/04/17 04:47:51;;;;;;;10.43;7.50;;;4.30;98.40;;;;;;5093400;28;20055;-78
2022/04/17 04:50:17;;;;;;;9.30;7.30;;;4.40;98.40;;;;;;5075843;28;20047;-78
2022/04/17 04:52:42;;;;;;;8.68;7.15;;;4.40;98.50;;;;;;5094188;28;20040;-78
2022/04/17 04:55:08;;;;;;;11.80;7.18;;;4.40;98.50;;;;;;5094248;28;20043;-78
2022/04/17 04:57:37;;;;;;;9.30;7.50;;;4.40;98.50;;;;;;5075735;28;20049;-79
2022/04/17 05:00:06;;;;;;;9.85;7.43;;;4.40;98.50;;;;;;5076387;28;20047;-79
2022/04/17 05:02:37;;;;;;;9.63;7.15;;;4.40;98.50;;;;;;5093283;28;20064;-79
2022/04/17 05:05:05;;;;;;;8.07;6.97;;;4.40;98.50;;;;;;5060129;28;20415;-78
2022/04/17 05:07:30;;;;;;;9.38;7.28;;;4.40;98.50;;;;;;5075660;28;20040;-78
2022/04/17 05:09:56;;;;;;;10.35;8.18;;;4.40;98.60;;;;;;5059451;28;20074;-78
2022/04/17 05:12:22;;;;;;;9.02;7.20;;;4.40;98.60;;;;;;5093697;28;20484;-78
2022/04/17 05:14:50;;;;;;;9.23;7.13;;;4.40;98.60;;;;;;5075959;28;20104;-77
2022/04/17 05:17:16;;;;;;;8.75;7.05;;;4.50;98.70;;;;;;5075557;28;20044;-77
2022/04/17 05:19:42;;;;;;;7.90;6.97;;;4.50;98.80;;;;;;5055039;28;20459;-77
2022/04/17 05:22:15;;;;;;;12.45;7.55;;;4.50;98.90;;;;;;5072235;28;20090;-77
2022/04/17 05:24:44;;;;;;;9.70;7.47;;;4.50;99.00;;;;;;5054868;28;20492;-77
2022/04/17 05:27:09;;;;;;;8.77;7.45;;;4.50;99.10;;;;;;5056316;28;20056;-78
2022/04/17 05:29:35;;;;;;;10.38;7.90;;;4.50;99.20;;;;;;5054966;28;20047;-77
2022/04/17 05:32:01;;;;;;;9.57;7.30;;;4.60;99.40;;;;;;5072189;28;20131;-76
2022/04/17 05:34:27;;;;;;;9.07;7.65;;;4.60;99.50;;;;;;5038685;28;20049;-77
2022/04/17 05:36:53;;;;;;;10.52;7.55;;;4.60;99.60;;;;;;5038913;28;20063;-76
2022/04/17 05:39:19;;;;;;;8.60;7.70;;;4.60;99.60;;;;;;5054568;28;20148;-76
2022/04/17 05:41:44;;;;;;;9.55;7.80;;;4.70;99.80;;;;;;5071339;28;20150;-75
2022/04/17 05:44:10;;;;;;;11.45;8.00;;;4.70;99.90;;;;;;5055206;28;20197;-75
2022/04/17 05:46:36;;;;;;;8.88;7.47;;;4.80;99.90;;;;;;5038125;28;20044;-77
2022/04/17 05:49:03;;;;;;;11.15;8.48;;;4.80;99.80;;;;;;5038173;28;20053;-78
2022/04/17 05:51:29;;;;;;;10.35;8.45;;;5.00;99.60;;;;;;5021988;28;20052;-78
2022/04/17 05:53:54;;;;;;;9.05;8.02;;;5.00;99.30;;;;;;5038658;28;20435;-76
2022/04/17 05:56:20;;;;;;;13.60;8.35;;;5.10;98.70;;;;;;5071672;28;20483;-77
2022/04/17 05:58:45;;;;;;;9.77;8.40;;;5.20;98.50;;;;;;5037693;28;20051;-76
2022/04/17 06:01:11;;;;;;;12.10;8.52;;;5.30;98.30;;;;;;5038569;28;20102;-77
2022/04/17 06:03:37;;;;;;;10.65;8.98;;;5.30;98.20;;;;;;5038185;28;20503;-77
2022/04/17 06:06:03;;;;;;;10.07;8.63;;;5.40;98.00;;;;;;5072715;28;20044;-77
2022/04/17 06:08:28;;;;;;;12.73;8.82;;;5.50;97.80;;;;;;5071063;28;20079;-77
2022/04/17 06:10:54;;;;;;;10.95;8.55;;;5.60;97.60;;;;;;5021976;28;20110;-76
2022/04/17 06:13:20;;;;;;;9.55;8.55;;;5.60;97.40;;;;;;5054834;28;20036;-76
2022/04/17 06:15:45;;;;;;;10.10;8.00;;;5.70;97.20;;;;;;5054450;28;20059;-76
2022/04/17 06:18:11;;;;;;;11.52;8.75;;;5.70;97.00;;;;;;5024357;28;20138;-77
2022/04/17 06:20:37;;;;;;;10.27;8.93;;;5.80;96.70;;;;;;5040457;28;20055;-77
2022/04/17 06:23:03;;;;;;;10.57;8.23;;;5.80;96.50;;;;;;5041325;28;20165;-76
2022/04/17 06:25:28;;;;;;;12.30;8.65;;;5.90;96.40;;;;;;5024842;28;20093;-77
2022/04/17 06:27:56;;;;;;;12.77;8.65;;;6.00;96.30;;;;;;5074633;28;20036;-77
2022/04/17 06:30:21;;;;;;;12.20;8.40;;;6.00;96.10;;;;;;5074814;28;20055;-77
2022/04/17 06:32:47;;;;;;;12.10;8.68;;;6.10;95.80;;;;;;5057540;28;20047;-77
2022/04/17 06:35:14;;;;;;;11.63;8.80;;;6.20;95.80;;;;;;5041540;28;20063;-78
2022/04/17 06:37:50;;;;;;;10.30;8.63;;;6.20;95.70;;;;;;5057579;28;20044;-77
2022/04/17 06:40:19;;;;;;;10.68;8.30;;;6.30;95.70;;;;;;5058344;28;20048;-77
2022/04/17 06:42:46;;;;;;;11.45;8.48;;;6.30;95.50;;;;;;5041448;28;20052;-77
2022/04/17 06:45:11;;;;;;;11.20;8.90;;;6.40;95.20;;;;;;5065327;28;20102;-78
2022/04/17 06:47:37;;;;;;;10.50;8.40;;;6.40;95.10;;;;;;5057584;28;20105;-78
2022/04/17 06:50:04;;;;;;;10.40;8.25;;;6.50;95.00;;;;;;5077257;28;20048;-78
2022/04/17 06:52:30;;;;;;;12.38;8.35;;;6.50;94.70;;;;;;5041136;28;20396;-76
2022/04/17 06:54:58;;;;;;;9.75;8.75;;;6.60;94.70;;;;;;5041458;28;20040;-76
2022/04/17 06:57:31;;;;;;;10.50;8.15;;;6.70;94.80;;;;;;5074322;28;20450;-80
2022/04/17 06:59:57;;;;;;;12.95;8.70;;;6.70;95.10;;;;;;5043257;28;20106;-79
2022/04/17 07:02:23;;;;;;;10.95;8.27;;;6.90;94.90;;;;;;5069031;28;20051;-79
2022/04/17 07:04:49;;;;;;;9.85;8.00;;;7.00;94.80;;;;;;5064776;28;20057;-80
2022/04/17 07:07:15;;;;;;;9.23;7.63;;;7.00;94.50;;;;;;5081986;28;20126;-80
2022/04/17 07:09:41;;;;;;;11.50;8.35;;;7.20;93.70;;;;;;5047865;28;20396;-80
2022/04/17 07:12:21;;;;;;;9.35;7.38;;;7.20;93.50;;;;;;5081656;28;20501;-80
2022/04/17 07:15:16;;;;;;;11.50;7.70;;;7.30;93.20;;;;;;5097479;28;20113;-79
2022/04/17 07:18:00;;;;;;;9.32;7.35;;;7.50;93.20;;;;;;5079485;28;20109;-80
2022/04/17 07:20:32;;;;;;;10.30;7.93;;;7.60;93.30;;;;;;5094500;28;20056;-78
2022/04/17 07:23:06;;;;;;;10.38;7.60;;;7.80;93.10;;;;;;5044636;28;20127;-79
2022/04/17 07:25:49;;;;;;;8.68;7.78;;;7.90;92.50;;;;;;5063753;28;20059;-79
2022/04/17 07:28:20;;;;;;;9.32;7.22;;;8.10;92.00;;;;;;5078322;28;20517;-79
2022/04/17 07:30:51;;;;;;;8.18;7.03;;;8.20;91.60;;;;;;5062428;28;20063;-79
2022/04/17 07:33:44;;;;;;;8.32;7.15;;;8.30;90.70;;;;;;5079809;28;20039;-83
2022/04/17 07:36:25;;;;;;;11.88;8.00;;;8.40;90.30;;;;;;5056670;28;20055;-79
2022/04/17 07:38:55;;;;;;;8.77;7.47;;;8.60;90.20;;;;;;5060613;28;20412;-79
2022/04/17 07:41:27;;;;;;;8.48;7.15;;;8.60;90.40;;;;;;5028346;28;20044;-79
2022/04/17 07:43:59;;;;;;;10.48;7.22;;;8.80;90.60;;;;;;5058408;28;20412;-79
2022/04/17 07:46:46;;;;;;;8.82;7.22;;;8.90;90.00;;;;;;5077214;28;20063;-86
2022/04/17 07:49:39;;;;;;;7.63;6.82;;;9.00;88.80;;;;;;5063443;28;20132;-79
2022/04/17 07:52:20;;;;;;;8.18;7.03;;;9.10;87.90;;;;;;5077277;28;20044;-79
2022/04/17 07:54:54;;;;;;;8.45;6.82;;;9.30;88.00;;;;;;5062918;28;20388;-80
2022/04/17 07:57:19;;;;;;;8.50;6.95;;;9.30;88.50;;;;;;5044065;28;20114;-80
2022/04/17 07:59:45;;;;;;;8.15;6.32;;;9.50;88.80;;;;;;5043476;28;20181;-80
2022/04/17 08:02:28;;;;;;;8.90;6.72;;;9.70;87.50;;;;;;5077089;28;20044;-79
2022/04/17 08:04:54;;;;;;;7.93;6.18;;;9.80;85.00;;;;;;5045841;28;20048;-80
2022/04/17 08:07:30;;;;;;;7.55;6.35;;;9.90;81.30;;;;;;5061282;28;20036;-80
2022/04/17 08:10:06;;;;;;;7.22;6.22;;;9.90;76.90;;;;;;5060459;28;20062;-83
2022/04/17 08:12:49;;;;;;;8.70;6.35;;;9.90;78.00;;;;;;5044657;28;20048;-81
2022/04/17 08:15:17;;;;;;;8.18;6.80;;;10.00;76.60;;;;;;5094735;28;20051;-80
2022/04/17 08:17:43;;;;;;;9.63;6.15;;;10.00;74.90;;;;;;5058110;28;20135;-81
2022/04/17 08:20:14;;;;;;;8.55;6.00;;;10.10;73.90;;;;;;5057521;28;20095;-80
2022/04/17 08:23:10;;;;;;;9.10;6.53;;;10.10;71.90;;;;;;5060131;28;20052;-80
2022/04/17 08:25:55;;;;;;;7.97;6.20;;;10.10;72.90;;;;;;5075133;28;20459;-79
2022/04/17 08:28:22;;;;;;;7.47;6.15;;;10.10;72.00;;;;;;5060264;28;20097;-80
2022/04/17 08:31:02;;;;;;;9.52;6.38;;;10.10;70.90;;;;;;5064000;28;20135;-81
2022/04/17 08:33:28;;;;;;;8.05;5.68;;;10.10;70.10;;;;;;5060159;28;20079;-81
2022/04/17 08:35:55;;;;;;;6.68;5.60;;;10.10;69.10;;;;;;5076287;28;20373;-80
2022/04/17 08:38:21;;;;;;;7.13;5.68;;;10.20;67.50;;;;;;5043173;28;20035;-80
2022/04/17 08:40:48;;;;;;;6.80;6.10;;;10.20;67.70;;;;;;5059290;28;20052;-80
2022/04/17 08:43:17;;;;;;;6.75;5.82;;;10.20;67.30;;;;;;5043555;28;20442;-80
2022/04/17 08:46:13;;;;;;;7.45;6.05;;;10.20;67.70;;;;;;5077503;28;20120;-80
2022/04/17 08:48:49;;;;;;;6.85;5.47;;;10.20;68.10;;;;;;5040734;28;20048;-80
2022/04/17 08:51:48;;;;;;;8.95;5.90;;;10.10;65.70;;;;;;5094373;28;20040;-80
2022/04/17 08:54:28;;;;;;;6.63;5.53;;;10.20;65.90;;;;;;5067909;28;20110;-80
2022/04/17 08:56:59;;;;;;;8.80;6.03;;;10.20;65.30;;;;;;5059146;28;20044;-81
2022/04/17 09:03:03;;;;;;;6.60;5.90;;;10.20;65.40;;;;;;5109970;27;1836880;-78
2022/04/17 09:05:29;;;;;;;7.38;6.10;;;10.20;65.10;;;;;;5098123;27;20142;-79
2022/04/17 09:08:19;;;;;;;6.60;5.38;;;10.40;65.30;;;;;;5118114;27;20547;-79
2022/04/17 09:11:01;;;;;;;6.72;5.40;;;10.30;63.60;;;;;;5134105;27;20046;-79
2022/04/17 09:13:33;;;;;;;7.45;5.80;;;10.30;64.40;;;;;;5134033;27;20069;-79
2022/04/17 09:16:04;;;;;;;6.75;5.50;;;10.40;64.20;;;;;;5115236;27;20055;-79
2022/04/17 09:18:33;;;;;;;7.10;5.45;;;10.40;64.60;;;;;;5133027;27;20047;-79
2022/04/17 09:21:11;;;;;;;6.30;5.00;;;10.40;64.80;;;;;;5117714;27;20057;-79
2022/04/17 09:23:50;;;;;;;7.68;5.43;;;10.40;64.00;;;;;;5118510;27;20049;-79
2022/04/17 09:26:24;;;;;;;7.72;5.40;;;10.50;64.80;;;;;;5116752;27;20046;-79
2022/04/17 09:28:51;;;;;;;9.40;5.53;;;10.50;64.70;;;;;;5120899;27;20465;-79
2022/04/17 09:31:25;;;;;;;7.28;5.70;;;10.60;64.80;;;;;;5110811;27;20051;-79
2022/04/17 09:33:53;;;;;;;8.02;5.43;;;10.60;64.70;;;;;;5095019;28;20078;-79
2022/04/17 09:36:42;;;;;;;7.60;5.22;;;10.70;64.20;;;;;;5115680;28;20096;-79
2022/04/17 09:39:14;;;;;;;6.50;5.13;;;10.80;65.50;;;;;;5076994;28;20059;-79
2022/04/17 09:42:08;;;;;;;5.55;4.80;;;10.90;64.50;;;;;;5110430;28;20564;-79
2022/04/17 09:44:58;;;;;;;6.68;5.07;;;11.00;62.00;;;;;;5098376;28;20043;-79
2022/04/17 09:47:40;;;;;;;8.07;5.38;;;11.10;61.10;;;;;;5097752;28;20048;-79
2022/04/17 09:50:09;;;;;;;5.95;4.70;;;11.20;63.70;;;;;;5112411;28;20055;-79
2022/04/17 09:52:46;;;;;;;5.72;4.85;;;11.20;62.10;;;;;;5094642;28;20103;-79
2022/04/17 09:55:25;;;;;;;5.45;4.28;;;11.30;60.50;;;;;;5129608;28;20158;-79
2022/04/17 09:58:24;;;;;;;6.25;4.47;;;11.30;60.30;;;;;;5077550;28;20113;-79
2022/04/17 10:00:56;;;;;;;5.95;4.63;;;11.30;58.70;;;;;;5130373;27;20541;-79
2022/04/17 10:03:39;;;;;;;5.70;4.57;;;11.40;60.30;;;;;;5109840;28;20051;-79
2022/04/17 10:06:08;;;;;;;5.88;5.22;;;11.40;59.70;;;;;;5126381;28;20051;-79
2022/04/17 10:08:55;;;;;;;5.88;4.60;;;11.40;60.30;;;;;;5115272;28;20046;-79
2022/04/17 10:11:31;;;;;;;6.97;5.00;;;11.50;59.60;;;;;;5129942;27;20063;-79
2022/04/17 10:14:07;;;;;;;6.43;4.75;;;11.60;59.60;;;;;;5085037;28;20054;-79
2022/04/17 10:16:50;;;;;;;5.05;4.50;;;11.60;59.90;;;;;;5107447;28;20063;-79
2022/04/17 10:19:19;;;;;;;6.47;4.25;;;11.70;59.70;;;;;;5113903;28;20044;-79
2022/04/17 10:21:58;;;;;;;4.90;4.22;;;11.80;57.80;;;;;;5065785;28;20051;-79
2022/04/17 10:24:30;;;;;;;5.60;4.60;;;11.90;57.20;;;;;;5063813;28;20039;-79
2022/04/17 10:27:09;;;;;;;5.22;4.70;;;12.10;57.40;;;;;;5114323;28;20083;-80
2022/04/17 10:30:10;;;;;;;6.82;4.82;;;12.00;57.30;;;;;;5115557;28;20043;-79
2022/04/17 10:33:25;;;;;;;5.97;4.40;;;12.10;56.10;;;;;;5087038;28;20104;-79
2022/04/17 10:36:30;;;;;;;6.95;4.68;;;12.10;56.10;;;;;;5080438;28;20069;-79
2022/04/17 10:39:15;;;;;;;6.32;4.60;;;12.20;54.10;;;;;;5114377;27;20073;-82
2022/04/17 10:42:07;;;;;;;7.30;5.13;;;12.30;55.80;;;;;;5113229;28;20040;-79
2022/04/17 10:44:49;;;;;;;5.75;4.88;;;12.40;56.40;;;;;;5112959;28;20130;-80
2022/04/17 10:47:30;;;;;;;6.57;5.13;;;12.40;56.20;;;;;;5099542;28;20055;-80
2022/04/17 10:49:56;;;;;;;6.05;4.63;;;12.50;57.20;;;;;;5067443;28;20055;-79
2022/04/17 10:53:24;;;;;;;4.53;3.60;;;12.60;56.20;;;;;;5095586;28;20072;-79
2022/04/17 10:59:37;;;;;;;4.15;3.20;;;12.80;51.00;;;;;;5102203;28;20052;-80
2022/04/17 11:02:09;;;;;;;4.68;3.42;;;13.00;52.30;;;;;;5119832;27;20501;-79
2022/04/17 11:04:54;;;;;;;4.80;3.50;;;13.00;51.60;;;;;;5135620;27;20054;-79
2022/04/17 11:07:41;;;;;;;4.43;3.70;;;13.00;51.40;;;;;;5085680;27;20046;-79
2022/04/17 11:10:30;;;;;;;5.13;3.53;;;13.00;51.20;;;;;;5097236;27;20086;-79
2022/04/17 11:13:28;;;;;;;4.43;3.45;;;13.10;51.30;;;;;;5069798;27;20047;-80
2022/04/17 11:16:19;;;;;;;4.20;3.80;;;13.20;49.80;;;;;;5104665;27;20442;-79
2022/04/17 11:19:11;;;;;;;4.93;3.90;;;13.20;49.20;;;;;;5115710;27;20066;-79
2022/04/17 11:25:20;;;;;;;7.25;4.25;;;13.30;50.40;;;;;;5069871;27;20078;-79
2022/04/17 11:27:58;;;;;;;3.90;3.50;;;13.40;48.90;;;;;;5103001;27;20055;-79
2022/04/17 11:30:23;;;;;;;;;;;13.60;51.20;;;;;;5099943;27;20284;-79
2022/04/17 11:33:05;;;;;;;5.45;3.70;;;13.60;48.40;;;;;;5135119;27;20005;-79
2022/04/17 11:35:46;;;;;;;3.42;3.13;;;13.60;51.40;;;;;;5101073;27;20047;-79
2022/04/17 11:38:59;;;;;;;4.50;3.92;;;13.60;50.30;;;;;;5085097;27;20048;-79
2022/04/17 11:41:34;;;;;;;4.25;3.40;;;13.70;49.80;;;;;;5112581;27;20047;-79
2022/04/17 11:44:05;;;;;;;3.60;3.30;;;13.80;49.70;;;;;;5099769;27;20039;-79
2022/04/17 11:46:54;;;;;;;3.85;3.30;;;13.90;49.60;;;;;;5049872;27;20054;-79
2022/04/17 11:52:41;;;;;;;5.00;3.17;;;14.00;45.90;;;;;;5134246;27;20054;-80
2022/04/17 11:55:10;;;;;;;3.35;3.00;;;14.00;47.10;;;;;;5115640;27;20059;-79
2022/04/17 11:58:03;;;;;;;4.03;3.60;;;14.10;47.20;;;;;;5116771;27;20549;-80
2022/04/17 12:00:42;;;;;;;5.10;3.75;;;14.30;46.90;;;;;;5133953;27;20085;-79
2022/04/17 12:03:21;;;;;;;3.53;3.10;;;14.40;46.90;;;;;;5123953;27;20487;-79
2022/04/17 12:06:03;;;;;;;4.03;3.10;;;14.50;46.70;;;;;;5081013;28;20109;-79
2022/04/17 12:08:43;;;;;;;6.38;3.38;;;14.60;46.90;;;;;;5092494;27;20138;-79
2022/04/17 12:11:26;;;;;;;4.25;3.28;;;14.60;46.40;;;;;;5080490;27;20406;-79
2022/04/17 12:14:31;;;;;;;3.50;3.20;;;14.70;45.90;;;;;;5132393;27;20407;-79
2022/04/17 12:17:32;;;;;;;4.57;3.22;;;14.80;44.10;;;;;;5068141;27;20490;-79
2022/04/17 12:20:38;;;;;;;4.53;3.63;;;14.80;44.00;;;;;;5122711;27;20058;-79
2022/04/17 12:23:32;;;;;;;5.55;3.60;;;14.80;46.50;;;;;;5113277;28;20054;-79
2022/04/17 12:26:09;;;;;;;5.38;3.45;;;14.90;46.90;;;;;;5081391;28;20043;-79
2022/04/17 12:29:19;;;;;;;3.92;3.53;;;14.90;46.50;;;;;;5065595;28;20084;-79
2022/04/17 12:31:52;;;;;;;4.72;3.30;;;14.90;45.40;;;;;;5077741;28;20040;-79
2022/04/17 12:34:27;;;;;;;6.05;3.58;;;14.90;46.90;;;;;;5081601;28;20108;-80
2022/04/17 12:37:21;;;;;;;4.25;3.15;;;15.00;47.10;;;;;;5060449;28;20052;-79
2022/04/17 12:40:31;;;;;;;4.10;3.70;;;15.10;46.00;;;;;;5097710;28;20518;-79
2022/04/17 12:43:20;;;;;;;5.95;3.33;;;15.10;46.50;;;;;;5095139;28;20075;-79
2022/04/17 12:46:14;;;;;;;4.47;3.45;;;15.20;46.20;;;;;;5096318;28;20087;-79
2022/04/17 12:49:25;;;;;;;3.53;3.08;;;15.20;45.70;;;;;;5112037;28;20043;-78
2022/04/17 12:52:22;;;;;;;4.60;3.40;;;15.20;46.70;;;;;;5111963;28;20051;-79
2022/04/17 12:55:11;;;;;;;4.10;3.53;;;15.20;46.10;;;;;;5095378;28;20070;-78
2022/04/17 12:57:50;;;;;;;4.50;3.70;;;15.30;45.40;;;;;;5112655;28;20098;-79
2022/04/17 13:01:01;;;;;;;4.43;3.88;;;15.30;45.10;;;;;;5096856;28;20119;-79
2022/04/17 13:04:06;;;;;;;5.07;3.67;;;15.30;45.40;;;;;;5076144;28;20062;-79
2022/04/17 13:06:37;;;;;;;5.32;4.20;;;15.30;45.10;;;;;;5069742;28;20048;-79
2022/04/17 13:09:22;;;;;;;4.80;3.90;;;15.30;45.50;;;;;;5015679;28;20053;-79
2022/04/17 13:12:16;;;;;;;5.90;4.22;;;15.30;45.10;;;;;;5036850;28;20578;-78
2022/04/17 13:15:23;;;;;;;5.95;3.92;;;15.30;45.20;;;;;;5070040;28;20049;-78
2022/04/17 13:18:13;;;;;;;5.30;4.20;;;15.40;46.10;;;;;;5066928;28;20546;-79
2022/04/17 13:21:13;;;;;;;5.28;4.22;;;15.40;46.00;;;;;;5006182;28;20447;-79
2022/04/17 13:24:03;;;;;;;5.15;4.22;;;15.50;44.30;;;;;;5052046;28;20045;-79
2022/04/17 13:26:46;;;;;;;6.63;4.65;;;15.50;45.60;;;;;;4996690;28;20054;-79
2022/04/17 13:29:24;;;;;;;5.43;3.85;;;15.50;45.20;;;;;;4962526;28;20092;-79
2022/04/17 13:32:12;;;;;;;5.05;4.55;;;15.50;45.40;;;;;;5036109;28;20094;-79
2022/04/17 13:34:58;;;;;;;8.13;4.50;;;15.60;44.50;;;;;;5069868;28;20091;-79
2022/04/17 13:38:11;;;;;;;5.00;4.38;;;15.60;44.20;;;;;;5049023;28;20055;-79
2022/04/17 13:41:11;;;;;;;5.88;4.65;;;15.60;43.90;;;;;;5057913;28;20051;-79
2022/04/17 13:43:41;;;;;;;6.63;5.10;;;15.60;45.10;;;;;;5090609;28;20051;-79
2022/04/17 13:46:17;;;;;;;6.15;5.20;;;15.60;45.60;;;;;;5073047;28;20104;-78
2022/04/17 13:48:56;;;;;;;5.75;4.88;;;15.70;45.50;;;;;;5074774;28;20166;-79
2022/04/17 13:51:29;;;;;;;5.35;4.82;;;15.70;45.00;;;;;;5059725;28;20048;-79
2022/04/17 13:54:20;;;;;;;5.93;4.97;;;15.70;46.00;;;;;;5068076;28;20058;-79
2022/04/17 13:57:12;;;;;;;5.57;4.72;;;15.80;45.50;;;;;;5061759;28;20058;-79